Time;durP1;ratioP1;P1;durP2;ratioP2;P2;SDS_P1;SDS_P2;PMS_P1;PMS_P2;Temp;Humidity;BMP_temperature;BMP_pressure;BME280_temperature;BME280_humidity;BME280_pressure;Samples;Min_cycle;Max_cycle;Signal;HPM_P1;HPM_P2
2023/09/10 00:01:08;;;;;;;43.00;39.22;;;19.60;99.90;;;;;;5068122;28;20448;-75
2023/09/10 00:03:34;;;;;;;41.72;38.03;;;19.60;99.90;;;;;;5076453;28;20135;-74
2023/09/10 00:06:01;;;;;;;39.63;36.22;;;19.60;99.90;;;;;;5068302;28;20048;-74
2023/09/10 00:08:27;;;;;;;40.85;37.25;;;19.50;99.90;;;;;;5089570;28;20111;-74
2023/09/10 00:10:54;;;;;;;39.28;35.83;;;19.50;99.90;;;;;;5078358;28;20077;-75
2023/09/10 00:13:20;;;;;;;;;;;19.50;99.90;;;;;;5081360;28;20076;-75
2023/09/10 00:15:45;;;;;;;41.70;37.80;;;19.40;99.90;;;;;;5060095;28;19963;-75
2023/09/10 00:18:11;;;;;;;41.70;38.10;;;19.40;99.90;;;;;;5064746;28;20044;-75
2023/09/10 00:20:38;;;;;;;43.70;39.90;;;19.40;99.90;;;;;;5065459;28;20515;-74
2023/09/10 00:23:03;;;;;;;48.10;43.67;;;19.40;99.90;;;;;;5082706;28;20059;-74
2023/09/10 00:25:29;;;;;;;50.42;45.92;;;19.30;99.90;;;;;;5068050;28;20044;-75
2023/09/10 00:27:56;;;;;;;49.78;45.22;;;19.20;99.90;;;;;;5067496;28;20397;-74
2023/09/10 00:30:22;;;;;;;47.80;43.63;;;19.20;99.90;;;;;;5067442;28;20495;-74
2023/09/10 00:32:48;;;;;;;44.10;40.20;;;19.20;99.90;;;;;;5061034;28;20079;-74
2023/09/10 00:35:14;;;;;;;42.78;38.75;;;19.20;99.90;;;;;;5081861;28;20111;-76
2023/09/10 00:37:40;;;;;;;45.58;41.58;;;19.20;99.90;;;;;;5081875;28;20097;-76
2023/09/10 00:40:07;;;;;;;45.10;41.15;;;19.20;99.90;;;;;;5074468;28;20120;-75
2023/09/10 00:42:33;;;;;;;;;;;19.20;99.90;;;;;;5082162;28;20119;-75
2023/09/10 00:44:58;;;;;;;43.83;40.07;;;19.20;99.90;;;;;;5081061;28;20007;-75
2023/09/10 00:47:24;;;;;;;44.15;40.25;;;19.20;99.90;;;;;;5067139;28;20502;-75
2023/09/10 00:49:50;;;;;;;44.03;40.17;;;19.10;99.90;;;;;;5087067;28;20047;-76
2023/09/10 00:52:17;;;;;;;44.70;40.78;;;19.20;99.90;;;;;;5061590;28;20036;-76
2023/09/10 00:54:44;;;;;;;44.72;40.80;;;19.10;99.90;;;;;;5085253;28;20410;-76
2023/09/10 00:57:10;;;;;;;45.08;41.17;;;19.10;99.90;;;;;;5081574;28;20487;-75
2023/09/10 00:59:36;;;;;;;42.22;38.53;;;19.00;99.90;;;;;;5066502;28;20043;-75
2023/09/10 01:02:02;;;;;;;44.63;40.63;;;19.00;99.90;;;;;;5076395;28;20651;-75
2023/09/10 01:04:28;;;;;;;40.50;36.90;;;18.90;99.90;;;;;;5088804;28;20052;-75
2023/09/10 01:06:54;;;;;;;42.50;38.88;;;18.90;99.90;;;;;;5062999;28;20040;-75
2023/09/10 01:09:20;;;;;;;42.38;38.60;;;18.90;99.90;;;;;;5081370;28;20043;-75
2023/09/10 01:12:24;;;;;;;44.72;40.72;;;18.90;99.90;;;;;;5069460;28;20040;-76
2023/09/10 01:15:04;;;;;;;40.40;36.80;;;19.00;99.90;;;;;;5072753;28;20127;-76
2023/09/10 01:17:33;;;;;;;33.42;30.58;;;18.90;99.90;;;;;;5088483;28;20043;-76
2023/09/10 01:20:25;;;;;;;30.50;27.95;;;18.90;99.90;;;;;;5080934;28;20131;-76
2023/09/10 01:23:04;;;;;;;32.90;29.88;;;18.90;99.90;;;;;;5064776;28;20110;-76
2023/09/10 01:25:32;;;;;;;31.92;29.23;;;18.90;99.90;;;;;;5069722;28;20059;-76
2023/09/10 01:27:57;;;;;;;34.47;31.48;;;18.80;99.90;;;;;;5083842;28;20041;-76
2023/09/10 01:30:23;;;;;;;37.15;33.92;;;18.70;99.90;;;;;;5089324;28;20066;-76
2023/09/10 01:32:56;;;;;;;39.17;35.97;;;18.70;99.90;;;;;;5085398;28;20039;-76
2023/09/10 01:35:27;;;;;;;37.42;34.33;;;18.70;99.90;;;;;;5082155;28;20127;-76
2023/09/10 01:38:18;;;;;;;47.72;43.35;;;18.70;99.90;;;;;;5088624;28;20044;-76
2023/09/10 01:40:51;;;;;;;37.83;34.58;;;18.70;99.90;;;;;;5074845;28;20060;-76
2023/09/10 01:43:17;;;;;;;33.40;30.60;;;18.60;99.90;;;;;;5070103;28;20040;-76
2023/09/10 01:45:44;;;;;;;34.28;31.33;;;18.60;99.90;;;;;;5061686;28;20087;-76
2023/09/10 01:48:10;;;;;;;43.88;40.00;;;18.60;99.90;;;;;;5069227;28;20490;-76
2023/09/10 01:50:36;;;;;;;45.88;41.85;;;18.50;99.90;;;;;;5069809;28;20056;-76
2023/09/10 01:53:02;;;;;;;48.47;44.10;;;18.50;99.90;;;;;;5064550;28;20044;-76
2023/09/10 01:55:27;;;;;;;52.08;47.28;;;18.60;99.90;;;;;;5062625;28;20052;-75
2023/09/10 01:57:54;;;;;;;48.80;44.30;;;18.60;99.90;;;;;;5089004;28;20115;-75
2023/09/10 02:00:21;;;;;;;53.03;48.17;;;18.60;99.90;;;;;;5065737;28;20476;-76
2023/09/10 02:02:47;;;;;;;49.20;44.83;;;18.60;99.90;;;;;;5062252;28;20659;-76
2023/09/10 02:05:13;;;;;;;47.75;43.65;;;18.60;99.90;;;;;;5071693;28;20082;-76
2023/09/10 02:07:39;;;;;;;41.33;37.72;;;18.50;99.90;;;;;;5087506;28;20075;-75
2023/09/10 02:10:05;;;;;;;41.42;37.83;;;18.50;99.90;;;;;;5067645;28;20040;-75
2023/09/10 02:12:33;;;;;;;48.83;44.50;;;18.50;99.90;;;;;;5083634;28;20672;-76
2023/09/10 02:15:00;;;;;;;50.03;45.53;;;18.50;99.90;;;;;;5080436;28;20047;-75
2023/09/10 02:17:26;;;;;;;49.08;44.60;;;18.40;99.90;;;;;;5081766;28;20079;-76
2023/09/10 02:19:52;;;;;;;57.72;52.55;;;18.40;99.90;;;;;;5087605;28;20071;-75
2023/09/10 02:22:17;;;;;;;55.47;50.38;;;18.40;99.90;;;;;;5069566;28;20052;-75
2023/09/10 02:24:49;;;;;;;52.40;47.75;;;18.40;99.90;;;;;;5089900;28;20051;-75
2023/09/10 02:27:18;;;;;;;56.45;51.30;;;18.40;99.90;;;;;;5083612;28;20048;-76
2023/09/10 02:29:44;;;;;;;52.33;47.72;;;18.40;99.90;;;;;;5080471;28;20040;-75
2023/09/10 02:32:10;;;;;;;53.17;48.25;;;18.40;99.90;;;;;;5081236;28;20109;-76
2023/09/10 02:34:35;;;;;;;50.20;45.55;;;18.30;99.90;;;;;;5072726;28;20036;-76
2023/09/10 02:37:02;;;;;;;52.50;47.95;;;18.30;99.90;;;;;;5063240;28;20043;-75
2023/09/10 02:39:28;;;;;;;52.97;48.42;;;18.30;99.90;;;;;;5079918;28;20072;-76
2023/09/10 02:41:55;;;;;;;50.90;46.38;;;18.30;99.90;;;;;;5068358;28;20079;-76
2023/09/10 02:44:21;;;;;;;51.35;46.92;;;18.30;99.90;;;;;;5086439;28;20043;-75
2023/09/10 02:46:47;;;;;;;44.55;40.60;;;18.30;99.90;;;;;;5084868;28;20036;-76
2023/09/10 02:49:17;;;;;;;43.42;39.72;;;18.30;99.90;;;;;;5070833;28;20055;-76
2023/09/10 02:51:42;;;;;;;45.88;41.78;;;18.30;99.90;;;;;;5070403;28;20032;-75
2023/09/10 02:54:08;;;;;;;44.95;40.95;;;18.20;99.90;;;;;;5077211;28;20089;-76
2023/09/10 02:56:34;;;;;;;46.33;42.22;;;18.20;99.90;;;;;;5067757;28;20059;-76
2023/09/10 02:58:59;;;;;;;40.67;37.17;;;18.20;99.90;;;;;;5068359;28;20050;-76
2023/09/10 03:01:25;;;;;;;41.35;37.95;;;18.20;99.90;;;;;;5078214;28;20051;-76
2023/09/10 03:03:51;;;;;;;44.47;40.45;;;18.20;99.90;;;;;;5061327;28;20147;-75
2023/09/10 03:06:17;;;;;;;42.28;38.67;;;18.20;99.90;;;;;;5071277;28;20055;-76
2023/09/10 03:08:44;;;;;;;44.00;40.22;;;18.10;99.90;;;;;;5065824;28;20059;-75
2023/09/10 03:11:10;;;;;;;41.88;38.17;;;18.10;99.90;;;;;;5071129;28;20050;-75
2023/09/10 03:13:35;;;;;;;40.40;36.75;;;18.00;99.90;;;;;;5062535;28;20037;-76
2023/09/10 03:16:01;;;;;;;39.40;36.03;;;18.00;99.90;;;;;;5075874;28;20059;-75
2023/09/10 03:18:27;;;;;;;41.40;37.80;;;18.00;99.90;;;;;;5068277;28;20043;-76
2023/09/10 03:20:53;;;;;;;42.70;38.88;;;18.00;99.90;;;;;;5065336;28;20040;-75
2023/09/10 03:23:19;;;;;;;41.15;37.55;;;18.00;99.90;;;;;;5061964;28;20119;-75
2023/09/10 03:25:45;;;;;;;40.97;37.28;;;17.90;99.90;;;;;;5087463;28;20130;-75
2023/09/10 03:28:11;;;;;;;44.63;40.63;;;18.00;99.90;;;;;;5071366;28;20119;-75
2023/09/10 03:30:37;;;;;;;48.20;43.85;;;18.00;99.90;;;;;;5061288;28;20048;-76
2023/09/10 03:33:02;;;;;;;44.38;40.58;;;18.00;99.90;;;;;;5067154;28;20089;-75
2023/09/10 03:35:28;;;;;;;50.25;45.65;;;18.00;99.90;;;;;;5062857;28;20121;-75
2023/09/10 03:37:54;;;;;;;45.67;41.58;;;17.90;99.90;;;;;;5077124;28;20045;-75
2023/09/10 03:40:20;;;;;;;44.08;40.15;;;17.90;99.90;;;;;;5063541;28;20051;-73
2023/09/10 03:42:45;;;;;;;42.55;38.85;;;17.90;99.90;;;;;;5066555;28;20040;-74
2023/09/10 03:45:11;;;;;;;45.22;41.33;;;17.90;99.90;;;;;;5081170;28;20506;-75
2023/09/10 03:47:37;;;;;;;43.65;39.65;;;17.80;99.90;;;;;;5063676;28;20054;-74
2023/09/10 03:50:03;;;;;;;46.70;42.70;;;17.80;99.90;;;;;;5079495;28;20410;-75
2023/09/10 03:52:29;;;;;;;49.22;44.92;;;17.80;99.90;;;;;;5085294;28;20028;-75
2023/09/10 03:54:54;;;;;;;45.75;41.75;;;17.80;99.90;;;;;;5070074;28;20144;-75
2023/09/10 03:57:20;;;;;;;46.38;42.17;;;17.80;99.90;;;;;;5067323;28;20044;-75
2023/09/10 03:59:46;;;;;;;47.55;43.42;;;17.80;99.90;;;;;;5067351;28;20085;-75
2023/09/10 04:02:12;;;;;;;47.40;43.20;;;17.70;99.90;;;;;;5059986;28;20097;-75
2023/09/10 04:04:38;;;;;;;47.58;43.28;;;17.70;99.90;;;;;;5082803;28;20048;-75
2023/09/10 04:07:03;;;;;;;43.17;39.45;;;17.70;99.90;;;;;;5075397;28;20039;-75
2023/09/10 04:09:30;;;;;;;41.03;37.22;;;17.70;99.90;;;;;;5061348;28;20048;-75
2023/09/10 04:11:57;;;;;;;33.92;31.00;;;17.70;99.90;;;;;;5066163;28;20123;-75
2023/09/10 04:14:23;;;;;;;35.75;32.63;;;17.60;99.90;;;;;;5067206;28;20048;-75
2023/09/10 04:16:49;;;;;;;35.88;32.70;;;17.60;99.90;;;;;;5085362;28;20457;-75
2023/09/10 04:19:15;;;;;;;35.03;31.98;;;17.60;99.90;;;;;;5083505;28;20084;-75
2023/09/10 04:21:40;;;;;;;33.97;31.08;;;17.60;99.90;;;;;;5086575;28;20032;-75
2023/09/10 04:24:06;;;;;;;34.88;31.98;;;17.60;99.90;;;;;;5088030;28;20498;-75
2023/09/10 04:26:33;;;;;;;35.65;32.63;;;17.60;99.90;;;;;;5089591;28;20122;-75
2023/09/10 04:28:59;;;;;;;33.17;30.48;;;17.60;99.90;;;;;;5088202;28;20048;-75
2023/09/10 04:31:25;;;;;;;31.25;28.65;;;17.60;99.90;;;;;;5089768;28;20569;-75
2023/09/10 04:33:50;;;;;;;31.45;28.73;;;17.60;99.90;;;;;;5070783;28;20587;-75
2023/09/10 04:36:16;;;;;;;33.08;30.20;;;17.60;99.90;;;;;;5089334;28;20090;-75
2023/09/10 04:38:42;;;;;;;36.90;33.60;;;17.60;99.90;;;;;;5087519;28;20115;-75
2023/09/10 04:41:07;;;;;;;31.70;28.95;;;17.60;99.90;;;;;;5080387;28;20044;-75
2023/09/10 04:43:33;;;;;;;35.63;32.42;;;17.60;99.90;;;;;;5067341;28;20069;-75
2023/09/10 04:45:59;;;;;;;35.78;32.53;;;17.50;99.90;;;;;;5079479;28;20097;-75
2023/09/10 04:48:24;;;;;;;31.45;28.75;;;17.50;99.90;;;;;;5087991;28;20492;-75
2023/09/10 04:50:50;;;;;;;30.67;27.88;;;17.50;99.90;;;;;;5068993;28;20036;-75
2023/09/10 04:53:16;;;;;;;35.38;32.30;;;17.50;99.90;;;;;;5060589;28;20028;-75
2023/09/10 04:55:42;;;;;;;29.55;27.02;;;17.50;99.90;;;;;;5088323;28;20051;-75
2023/09/10 04:58:10;;;;;;;26.30;24.05;;;17.50;99.90;;;;;;5092230;28;20036;-75
2023/09/10 05:00:40;;;;;;;28.05;25.60;;;17.50;99.90;;;;;;5080399;28;20035;-75
2023/09/10 05:03:06;;;;;;;27.20;24.90;;;17.50;99.90;;;;;;5070144;28;20048;-75
2023/09/10 05:05:32;;;;;;;29.75;27.25;;;17.40;99.90;;;;;;5082338;28;20376;-75
2023/09/10 05:07:57;;;;;;;32.10;29.35;;;17.50;99.90;;;;;;5070873;28;20044;-75
2023/09/10 05:10:23;;;;;;;30.75;28.25;;;17.50;99.90;;;;;;5066633;28;20048;-75
2023/09/10 05:12:52;;;;;;;28.95;26.45;;;17.40;99.90;;;;;;5087960;28;20047;-75
2023/09/10 05:15:17;;;;;;;29.63;27.13;;;17.50;99.90;;;;;;5084537;28;20044;-75
2023/09/10 05:17:43;;;;;;;31.40;28.70;;;17.50;99.90;;;;;;5067252;28;20429;-75
2023/09/10 05:20:09;;;;;;;32.90;30.10;;;17.50;99.90;;;;;;5062518;28;20049;-75
2023/09/10 05:22:35;;;;;;;36.85;33.67;;;17.50;99.90;;;;;;5058025;28;20134;-75
2023/09/10 05:25:01;;;;;;;37.20;33.88;;;17.50;99.90;;;;;;5071210;28;20048;-75
2023/09/10 05:27:26;;;;;;;38.28;34.97;;;17.60;99.90;;;;;;5070735;28;20043;-75
2023/09/10 05:29:52;;;;;;;35.30;32.38;;;17.50;99.90;;;;;;5084155;28;20569;-75
2023/09/10 05:32:17;;;;;;;32.50;29.73;;;17.60;99.90;;;;;;5076018;28;20059;-74
2023/09/10 05:34:43;;;;;;;30.75;28.08;;;17.60;99.90;;;;;;5081870;28;20046;-73
2023/09/10 05:37:09;;;;;;;32.45;29.55;;;17.60;99.90;;;;;;5078091;28;20044;-73
2023/09/10 05:39:35;;;;;;;32.22;29.42;;;17.70;99.90;;;;;;5062767;28;20050;-73
2023/09/10 05:42:01;;;;;;;36.38;32.97;;;17.70;99.90;;;;;;5071590;28;20398;-74
2023/09/10 05:44:27;;;;;;;35.63;32.53;;;17.70;99.90;;;;;;5064045;28;20055;-74
2023/09/10 05:46:52;;;;;;;35.63;32.08;;;17.60;99.90;;;;;;5090043;28;20058;-74
2023/09/10 05:49:18;;;;;;;37.38;33.97;;;17.70;99.90;;;;;;5082722;28;20054;-74
2023/09/10 05:51:44;;;;;;;41.25;37.58;;;17.60;99.90;;;;;;5065229;28;20480;-74
2023/09/10 05:54:10;;;;;;;46.42;42.33;;;17.70;99.90;;;;;;5070328;28;20071;-74
2023/09/10 05:56:35;;;;;;;47.80;43.72;;;17.70;99.90;;;;;;5089769;28;20048;-74
2023/09/10 05:59:01;;;;;;;48.47;44.28;;;17.70;99.90;;;;;;5065077;28;20689;-74
2023/09/10 06:01:27;;;;;;;53.30;48.60;;;17.80;99.90;;;;;;5088509;28;20044;-74
2023/09/10 06:03:53;;;;;;;49.83;45.47;;;17.80;99.90;;;;;;5066761;28;20064;-74
2023/09/10 06:06:19;;;;;;;49.55;45.10;;;17.80;99.90;;;;;;5055374;28;20064;-74
2023/09/10 06:08:44;;;;;;;47.25;43.15;;;17.90;99.90;;;;;;5077157;28;20052;-74
2023/09/10 06:11:10;;;;;;;48.83;44.53;;;18.00;99.90;;;;;;5078945;28;20573;-74
2023/09/10 06:13:36;;;;;;;50.42;45.85;;;18.10;99.90;;;;;;5063250;28;20648;-74
2023/09/10 06:16:04;;;;;;;51.47;47.00;;;18.10;99.90;;;;;;5078643;28;20062;-74
2023/09/10 06:18:30;;;;;;;50.92;46.42;;;18.20;99.90;;;;;;5061016;28;20040;-74
2023/09/10 06:20:56;;;;;;;56.72;51.67;;;18.30;99.90;;;;;;5077577;28;20504;-74
2023/09/10 06:23:21;;;;;;;60.08;54.85;;;18.40;99.90;;;;;;5078161;28;20497;-74
2023/09/10 06:25:47;;;;;;;57.50;52.58;;;18.40;99.90;;;;;;5079424;28;20119;-74
2023/09/10 06:28:13;;;;;;;61.28;55.75;;;18.50;99.90;;;;;;5067106;28;20044;-73
2023/09/10 06:30:39;;;;;;;62.95;57.45;;;18.60;99.90;;;;;;5056541;28;20075;-74
2023/09/10 06:33:04;;;;;;;63.22;57.75;;;18.70;99.90;;;;;;5064058;28;20036;-74
2023/09/10 06:35:30;;;;;;;65.90;60.30;;;18.70;99.90;;;;;;5083365;28;20076;-74
2023/09/10 06:37:56;;;;;;;66.75;60.95;;;18.80;99.90;;;;;;5063303;28;20135;-73
2023/09/10 06:40:22;;;;;;;65.03;59.33;;;18.90;99.90;;;;;;5082312;28;20407;-74
2023/09/10 06:42:48;;;;;;;62.55;57.03;;;19.00;99.90;;;;;;5076480;28;20037;-74
2023/09/10 06:45:13;;;;;;;60.97;55.60;;;19.10;99.90;;;;;;5078124;28;20032;-74
2023/09/10 06:47:39;;;;;;;60.17;54.85;;;19.20;99.90;;;;;;5058639;28;20537;-72
2023/09/10 06:50:05;;;;;;;59.78;54.28;;;19.30;99.90;;;;;;5082255;28;20097;-72
2023/09/10 06:52:31;;;;;;;61.40;55.92;;;19.30;99.90;;;;;;5078657;28;20332;-71
2023/09/10 06:54:57;;;;;;;60.63;55.45;;;19.40;99.90;;;;;;5074057;28;20040;-75
2023/09/10 06:57:22;;;;;;;60.15;54.95;;;19.50;99.90;;;;;;5066467;28;20534;-73
2023/09/10 06:59:48;;;;;;;58.88;53.80;;;19.60;99.90;;;;;;5080326;28;20044;-75
2023/09/10 07:02:14;;;;;;;58.42;53.13;;;19.60;99.90;;;;;;5077091;28;20036;-74
2023/09/10 07:04:47;;;;;;;55.53;50.60;;;19.70;99.90;;;;;;5062987;28;20071;-75
2023/09/10 07:07:13;;;;;;;54.40;49.47;;;19.80;99.90;;;;;;5069159;28;20049;-76
2023/09/10 07:09:39;;;;;;;52.83;48.13;;;19.90;99.90;;;;;;5069363;28;20124;-76
2023/09/10 07:12:06;;;;;;;48.90;44.70;;;20.00;99.90;;;;;;5067950;28;20673;-75
2023/09/10 07:14:32;;;;;;;51.67;47.28;;;20.10;99.90;;;;;;5061055;28;20510;-75
2023/09/10 07:16:57;;;;;;;51.47;47.08;;;20.10;99.90;;;;;;5069852;28;20044;-76
2023/09/10 07:19:23;;;;;;;50.33;45.88;;;20.20;99.90;;;;;;5060488;28;20064;-76
2023/09/10 07:21:49;;;;;;;46.22;41.90;;;20.30;99.90;;;;;;5066596;28;20048;-75
2023/09/10 07:24:14;;;;;;;46.15;42.13;;;20.30;99.90;;;;;;5070069;28;20568;-76
2023/09/10 07:26:40;;;;;;;46.33;42.22;;;20.40;99.90;;;;;;5063418;28;20111;-75
2023/09/10 07:29:07;;;;;;;46.85;42.85;;;20.50;99.90;;;;;;5064845;28;20082;-76
2023/09/10 07:31:33;;;;;;;44.13;40.35;;;20.50;99.90;;;;;;5069441;28;20064;-75
2023/09/10 07:34:00;;;;;;;45.53;41.33;;;20.60;99.90;;;;;;5069312;28;20600;-76
2023/09/10 07:36:26;;;;;;;44.40;40.42;;;20.70;99.90;;;;;;5065555;28;20140;-76
2023/09/10 07:38:52;;;;;;;45.55;41.60;;;20.70;99.90;;;;;;5056573;28;20123;-75
2023/09/10 07:41:18;;;;;;;40.50;37.00;;;20.80;99.90;;;;;;5070152;28;20055;-76
2023/09/10 07:43:44;;;;;;;40.30;36.80;;;20.80;99.90;;;;;;5068272;28;20311;-76
2023/09/10 07:46:09;;;;;;;41.30;37.70;;;20.90;99.90;;;;;;5068601;28;20056;-75
2023/09/10 07:48:35;;;;;;;41.10;37.60;;;21.00;99.90;;;;;;5061428;28;20391;-75
2023/09/10 07:51:02;;;;;;;35.30;32.30;;;21.00;99.90;;;;;;5063610;28;20041;-73
2023/09/10 07:53:28;;;;;;;37.00;33.85;;;21.00;99.90;;;;;;5057026;28;20523;-73
2023/09/10 07:55:54;;;;;;;34.58;31.42;;;21.10;99.90;;;;;;5055249;28;20613;-73
2023/09/10 07:58:20;;;;;;;36.50;33.17;;;21.20;99.90;;;;;;5060235;28;20062;-73
2023/09/10 08:00:46;;;;;;;34.28;31.40;;;21.20;99.90;;;;;;5065365;28;20667;-73
2023/09/10 08:03:14;;;;;;;35.33;32.08;;;21.40;99.90;;;;;;5069138;28;20080;-73
2023/09/10 08:05:41;;;;;;;34.20;31.30;;;21.40;99.90;;;;;;5059225;28;20074;-73
2023/09/10 08:08:07;;;;;;;33.22;30.20;;;21.50;99.90;;;;;;5083187;28;20040;-72
2023/09/10 08:10:34;;;;;;;31.33;28.40;;;21.60;99.90;;;;;;5065629;28;20055;-73
2023/09/10 08:13:03;;;;;;;32.00;29.27;;;21.60;99.90;;;;;;5069591;28;20033;-72
2023/09/10 08:15:31;;;;;;;30.27;27.58;;;21.70;99.90;;;;;;5073947;28;20048;-73
2023/09/10 08:17:57;;;;;;;29.20;26.70;;;21.80;99.90;;;;;;5083926;28;20051;-72
2023/09/10 08:20:24;;;;;;;29.30;26.38;;;21.80;99.90;;;;;;5063858;28;20115;-73
2023/09/10 08:22:49;;;;;;;28.83;26.33;;;21.90;99.90;;;;;;5069472;28;20094;-73
2023/09/10 08:25:15;;;;;;;29.77;26.92;;;22.00;99.90;;;;;;5068990;28;20044;-73
2023/09/10 08:27:41;;;;;;;29.63;27.10;;;22.00;99.90;;;;;;5083941;28;20044;-73
2023/09/10 08:30:09;;;;;;;28.20;25.67;;;22.10;99.90;;;;;;5087955;28;20040;-73
2023/09/10 08:32:35;;;;;;;28.30;25.77;;;22.20;99.90;;;;;;5054431;28;20480;-73
2023/09/10 08:35:01;;;;;;;29.52;26.92;;;22.20;99.90;;;;;;5066015;28;20593;-73
2023/09/10 08:37:27;;;;;;;28.33;25.73;;;22.30;99.90;;;;;;5067388;28;20059;-73
2023/09/10 08:39:53;;;;;;;27.42;24.95;;;22.40;99.90;;;;;;5068847;28;20044;-73
2023/09/10 08:42:31;;;;;;;29.10;26.58;;;22.50;99.90;;;;;;5070258;28;20132;-73
2023/09/10 08:45:01;;;;;;;27.90;25.60;;;22.50;99.90;;;;;;5069256;28;20507;-73
2023/09/10 08:47:33;;;;;;;27.60;25.10;;;22.60;99.90;;;;;;5064963;28;20519;-73
2023/09/10 08:50:06;;;;;;;25.85;23.48;;;22.60;99.90;;;;;;5061325;28;20055;-73
2023/09/10 08:52:34;;;;;;;25.52;23.13;;;22.70;99.90;;;;;;5068406;28;20483;-73
2023/09/10 08:55:00;;;;;;;25.80;23.50;;;22.70;99.90;;;;;;5066168;28;20051;-73
2023/09/10 08:57:29;;;;;;;25.25;23.02;;;22.80;99.90;;;;;;5064682;28;20061;-73
2023/09/10 08:59:56;;;;;;;23.10;20.98;;;22.90;99.90;;;;;;5065702;28;20078;-73
2023/09/10 09:02:22;;;;;;;23.73;21.63;;;22.90;99.90;;;;;;5070226;28;20048;-74
2023/09/10 09:04:47;;;;;;;22.95;20.83;;;23.00;99.90;;;;;;5062157;28;20055;-73
2023/09/10 09:07:15;;;;;;;20.25;18.52;;;23.00;99.90;;;;;;5070059;28;20767;-73
2023/09/10 09:09:43;;;;;;;24.30;22.13;;;23.10;99.90;;;;;;5087873;28;20055;-74
2023/09/10 09:12:11;;;;;;;21.80;19.75;;;23.20;99.90;;;;;;5086269;28;20128;-73
2023/09/10 09:14:42;;;;;;;19.77;18.10;;;23.20;99.90;;;;;;5086133;28;20050;-75
2023/09/10 09:17:12;;;;;;;19.52;17.85;;;23.40;99.90;;;;;;5086007;28;20087;-74
2023/09/10 09:19:39;;;;;;;20.27;18.48;;;23.40;99.90;;;;;;5085807;28;20238;-74
2023/09/10 09:22:07;;;;;;;18.85;17.15;;;23.40;99.90;;;;;;5072209;28;20036;-74
2023/09/10 09:24:34;;;;;;;18.60;16.85;;;23.50;99.90;;;;;;5091013;28;20040;-74
2023/09/10 09:27:01;;;;;;;20.42;18.73;;;23.60;99.90;;;;;;5086212;28;20040;-73
2023/09/10 09:29:28;;;;;;;18.98;17.05;;;23.70;99.90;;;;;;5084196;28;20123;-73
2023/09/10 09:31:54;;;;;;;17.30;15.60;;;23.70;99.90;;;;;;5086308;28;20037;-76
2023/09/10 09:34:20;;;;;;;21.85;19.95;;;23.80;99.90;;;;;;5077165;28;20044;-74
2023/09/10 09:36:51;;;;;;;18.05;16.55;;;23.90;99.90;;;;;;5088878;28;20443;-76
2023/09/10 09:39:18;;;;;;;17.27;15.48;;;24.00;99.90;;;;;;5064033;28;20082;-77
2023/09/10 09:41:50;;;;;;;17.00;15.50;;;24.00;99.90;;;;;;5083270;28;20033;-76
2023/09/10 09:44:16;;;;;;;18.58;16.98;;;24.10;99.90;;;;;;5092770;28;20071;-76
2023/09/10 09:46:43;;;;;;;19.00;17.10;;;24.20;99.90;;;;;;5080521;28;20371;-75
2023/09/10 09:49:08;;;;;;;20.02;18.13;;;24.20;99.90;;;;;;5061186;28;20044;-75
2023/09/10 09:51:34;;;;;;;18.17;16.48;;;24.30;99.90;;;;;;5064614;28;20039;-78
2023/09/10 09:54:03;;;;;;;17.38;15.57;;;24.30;99.90;;;;;;5063295;28;20036;-77
2023/09/10 09:56:29;;;;;;;17.02;15.43;;;24.40;99.90;;;;;;5078830;28;20070;-75
2023/09/10 09:59:02;;;;;;;18.55;16.73;;;24.40;99.90;;;;;;5063779;28;20051;-77
2023/09/10 10:01:28;;;;;;;17.90;16.20;;;24.50;99.90;;;;;;5080809;28;20045;-76
2023/09/10 10:03:56;;;;;;;16.60;15.02;;;24.60;99.90;;;;;;5085030;28;20494;-77
2023/09/10 10:06:22;;;;;;;18.80;16.85;;;24.60;99.90;;;;;;5073451;28;20063;-79
2023/09/10 10:08:49;;;;;;;18.08;16.20;;;24.60;99.90;;;;;;5065820;28;20075;-80
2023/09/10 10:11:31;;;;;;;17.67;15.90;;;24.70;99.90;;;;;;5078693;28;20036;-81
2023/09/10 10:14:01;;;;;;;17.83;16.25;;;24.80;99.90;;;;;;5073498;28;20085;-79
2023/09/10 10:16:28;;;;;;;18.38;16.48;;;24.80;99.90;;;;;;5073299;28;20067;-75
2023/09/10 10:18:55;;;;;;;18.92;17.13;;;24.90;99.90;;;;;;5088120;28;20032;-75
2023/09/10 10:21:24;;;;;;;17.35;15.68;;;24.90;99.90;;;;;;5073552;28;20478;-77
2023/09/10 10:23:56;;;;;;;18.08;16.02;;;25.00;99.90;;;;;;5089510;28;20131;-75
2023/09/10 10:26:23;;;;;;;16.70;14.93;;;25.00;99.90;;;;;;5062934;28;20824;-75
2023/09/10 10:28:49;;;;;;;15.30;13.90;;;25.10;99.90;;;;;;5060640;28;20048;-75
2023/09/10 10:31:28;;;;;;;18.40;16.60;;;25.20;99.90;;;;;;5088744;28;20082;-75
2023/09/10 10:34:25;;;;;;;15.45;14.05;;;25.20;99.90;;;;;;5090812;28;20048;-75
2023/09/10 10:37:02;;;;;;;16.40;14.85;;;25.30;99.90;;;;;;5056628;28;20075;-75
2023/09/10 10:39:38;;;;;;;17.30;15.60;;;25.40;99.90;;;;;;5068889;28;20085;-74
2023/09/10 10:42:08;;;;;;;15.38;13.93;;;25.50;99.90;;;;;;5088348;28;20390;-78
2023/09/10 10:44:35;;;;;;;15.52;14.05;;;25.50;99.90;;;;;;5084193;28;20052;-73
2023/09/10 10:47:09;;;;;;;17.70;15.38;;;25.60;99.90;;;;;;5080730;28;20112;-79
2023/09/10 10:49:37;;;;;;;15.23;13.65;;;25.60;99.90;;;;;;5060314;28;20090;-74
2023/09/10 10:52:06;;;;;;;15.98;13.93;;;25.70;99.90;;;;;;5089750;28;20554;-76
2023/09/10 10:54:34;;;;;;;18.80;14.32;;;25.80;99.90;;;;;;5060721;28;20055;-75
2023/09/10 10:57:03;;;;;;;16.50;14.48;;;25.90;99.90;;;;;;5071736;28;20402;-75
2023/09/10 10:59:29;;;;;;;17.00;15.15;;;25.90;99.90;;;;;;5066218;28;20398;-74
2023/09/10 11:02:21;;;;;;;15.73;14.10;;;25.90;99.90;;;;;;5086031;28;20076;-75
2023/09/10 11:05:13;;;;;;;14.77;13.32;;;26.00;99.90;;;;;;5056796;28;20056;-73
2023/09/10 11:07:39;;;;;;;16.48;12.70;;;26.00;99.90;;;;;;5085428;28;20071;-75
2023/09/10 11:10:29;;;;;;;15.02;12.05;;;26.10;99.90;;;;;;5071553;28;20495;-76
2023/09/10 11:13:10;;;;;;;15.45;11.80;;;26.10;99.90;;;;;;5063402;28;20060;-75
2023/09/10 11:15:56;;;;;;;13.40;11.45;;;26.20;99.90;;;;;;5071630;28;20175;-75
2023/09/10 11:18:37;;;;;;;13.52;12.18;;;26.20;99.90;;;;;;5083637;28;20047;-77
2023/09/10 11:21:04;;;;;;;13.27;12.07;;;26.30;99.90;;;;;;5085353;28;20435;-78
2023/09/10 11:23:31;;;;;;;12.48;11.13;;;26.30;99.90;;;;;;5078157;28;20087;-78
2023/09/10 11:26:15;;;;;;;;;;;26.40;99.90;;;;;;5088805;28;20039;-76
2023/09/10 11:28:53;;;;;;;12.07;10.85;;;26.40;99.90;;;;;;5068051;28;19916;-77
2023/09/10 11:31:33;;;;;;;16.65;10.63;;;26.50;99.90;;;;;;5088526;28;20055;-75
2023/09/10 11:34:17;;;;;;;11.57;9.63;;;26.60;99.90;;;;;;5078175;28;20054;-76
2023/09/10 11:37:00;;;;;;;14.32;10.70;;;26.70;99.90;;;;;;5083216;28;20055;-75
2023/09/10 11:39:26;;;;;;;15.48;9.55;;;26.70;99.90;;;;;;5053985;28;20056;-75
2023/09/10 11:41:56;;;;;;;18.38;9.05;;;26.70;99.90;;;;;;5064000;28;20073;-74
2023/09/10 11:44:23;;;;;;;16.10;9.25;;;26.80;99.90;;;;;;5063897;28;20105;-78
2023/09/10 11:46:51;;;;;;;16.05;11.02;;;26.90;99.90;;;;;;5082748;28;20805;-74
2023/09/10 11:49:17;;;;;;;13.98;10.27;;;26.90;99.90;;;;;;5087403;28;20043;-74
2023/09/10 11:51:44;;;;;;;13.73;9.80;;;27.00;99.90;;;;;;5087816;28;20039;-74
2023/09/10 11:54:16;;;;;;;12.23;9.15;;;27.00;99.90;;;;;;5071544;28;20402;-76
2023/09/10 11:56:44;;;;;;;14.05;10.35;;;27.00;99.90;;;;;;5057219;28;20066;-76
2023/09/10 11:59:09;;;;;;;15.88;9.20;;;27.10;99.90;;;;;;5071170;28;20060;-74
2023/09/10 12:01:35;;;;;;;15.73;9.20;;;27.10;99.90;;;;;;5070302;28;20139;-75
2023/09/10 12:04:01;;;;;;;13.57;8.77;;;27.10;99.90;;;;;;5087118;28;20666;-75
2023/09/10 12:06:27;;;;;;;14.50;9.77;;;27.20;99.90;;;;;;5062481;28;20037;-74
2023/09/10 12:08:54;;;;;;;17.43;9.70;;;27.30;99.90;;;;;;5063859;28;20047;-73
2023/09/10 12:11:21;;;;;;;15.85;10.00;;;27.30;99.90;;;;;;5065685;28;20066;-73
2023/09/10 12:13:47;;;;;;;15.55;9.32;;;27.30;99.90;;;;;;5085186;28;20044;-78
2023/09/10 12:16:13;;;;;;;14.13;8.93;;;27.30;99.90;;;;;;5060408;28;20067;-78
2023/09/10 12:18:39;;;;;;;17.00;9.10;;;27.40;99.90;;;;;;5054700;28;20310;-78
2023/09/10 12:21:06;;;;;;;16.00;8.85;;;27.50;99.90;;;;;;5068826;28;20051;-77
2023/09/10 12:23:32;;;;;;;17.58;8.98;;;27.50;99.90;;;;;;5082756;28;20058;-77
2023/09/10 12:25:59;;;;;;;14.93;8.70;;;27.60;99.90;;;;;;5066652;28;20044;-75
2023/09/10 12:28:26;;;;;;;18.77;9.32;;;27.60;99.90;;;;;;5084341;28;20044;-75
2023/09/10 12:30:52;;;;;;;18.38;8.95;;;27.60;99.90;;;;;;5077611;28;20399;-74